createdAt,value
2018-06-20T00:02:19.989Z,19.50
2018-06-20T00:04:48.947Z,19.50
2018-06-20T00:07:18.203Z,19.50
2018-06-20T00:09:47.055Z,19.50
2018-06-20T00:12:16.004Z,19.50
2018-06-20T00:14:44.854Z,19.40
2018-06-20T00:17:13.738Z,19.50
2018-06-20T00:19:42.641Z,19.50
2018-06-20T00:22:11.528Z,19.50
2018-06-20T00:24:40.585Z,19.50
2018-06-20T00:27:09.469Z,19.40
2018-06-20T00:29:38.363Z,19.50
2018-06-20T00:32:07.251Z,19.50
2018-06-20T00:34:36.156Z,19.50
2018-06-20T00:37:05.044Z,19.40
2018-06-20T00:39:33.925Z,19.40
2018-06-20T00:42:02.797Z,19.40
2018-06-20T00:44:31.686Z,19.30
2018-06-20T00:47:00.569Z,19.30
2018-06-20T00:49:29.444Z,19.30
2018-06-20T00:51:58.324Z,19.30
2018-06-20T00:54:27.264Z,19.30
2018-06-20T00:56:56.149Z,19.30
2018-06-20T00:59:25.037Z,19.30
2018-06-20T01:01:53.907Z,19.30
2018-06-20T01:04:22.792Z,19.30
2018-06-20T01:06:51.675Z,19.30
2018-06-20T01:09:20.561Z,19.20
2018-06-20T01:11:49.549Z,19.20
2018-06-20T01:14:18.328Z,19.10
2018-06-20T01:16:47.217Z,19.20
2018-06-20T01:19:16.089Z,19.10
2018-06-20T01:21:44.979Z,19.10
2018-06-20T01:24:13.860Z,19.10
2018-06-20T01:26:42.747Z,19.10
2018-06-20T01:29:11.655Z,19.10
2018-06-20T01:31:40.520Z,19.00
2018-06-20T01:34:09.411Z,19.10
2018-06-20T01:36:38.293Z,19.10
2018-06-20T01:39:08.826Z,19.00
2018-06-20T01:41:37.705Z,19.10
2018-06-20T01:44:06.626Z,19.10
2018-06-20T01:46:35.511Z,19.00
2018-06-20T01:49:04.433Z,19.00
2018-06-20T01:51:33.320Z,19.00
2018-06-20T01:54:02.209Z,19.00
2018-06-20T01:56:31.088Z,19.10
2018-06-20T01:58:59.968Z,19.00
2018-06-20T02:01:28.875Z,19.00
2018-06-20T02:03:57.761Z,19.00
2018-06-20T02:06:26.640Z,19.00
2018-06-20T02:08:58.944Z,19.00
2018-06-20T02:11:29.373Z,19.00
2018-06-20T02:13:58.307Z,19.20
2018-06-20T02:16:27.231Z,19.10
2018-06-20T02:18:56.116Z,19.10
2018-06-20T02:21:24.977Z,19.10
2018-06-20T02:23:53.845Z,19.10
2018-06-20T02:26:22.719Z,19.10
2018-06-20T02:28:51.584Z,19.00
2018-06-20T02:31:20.488Z,19.00
2018-06-20T02:33:49.357Z,19.00
2018-06-20T02:36:23.523Z,19.00
2018-06-20T02:38:52.392Z,19.00
2018-06-20T02:41:21.263Z,19.10
2018-06-20T02:43:50.694Z,19.10
2018-06-20T02:46:19.633Z,19.10
2018-06-20T02:48:48.496Z,19.10
2018-06-20T02:51:17.365Z,19.10
2018-06-20T02:53:46.220Z,19.20
2018-06-20T02:56:15.108Z,19.30
2018-06-20T02:58:43.973Z,19.30
2018-06-20T03:01:12.870Z,19.30
2018-06-20T03:03:41.730Z,19.20
2018-06-20T03:06:10.605Z,19.20
2018-06-20T03:08:39.526Z,19.10
2018-06-20T03:11:08.607Z,19.10
2018-06-20T03:13:37.482Z,19.00
2018-06-20T03:16:06.412Z,19.00
2018-06-20T03:18:35.291Z,19.00
2018-06-20T03:21:04.236Z,19.00
2018-06-20T03:23:33.109Z,19.00
2018-06-20T03:26:02.021Z,18.90
2018-06-20T03:28:30.889Z,18.90
2018-06-20T03:30:59.795Z,18.90
2018-06-20T03:33:28.673Z,18.90
2018-06-20T03:35:57.557Z,18.90
2018-06-20T03:38:26.640Z,18.90
2018-06-20T03:40:55.516Z,18.80
2018-06-20T03:43:24.561Z,18.80
2018-06-20T03:45:53.450Z,18.80
2018-06-20T03:48:22.315Z,18.80
2018-06-20T03:50:51.200Z,18.80
2018-06-20T03:53:20.081Z,18.80
2018-06-20T03:55:48.968Z,18.90
2018-06-20T03:58:17.827Z,18.90
2018-06-20T04:00:46.705Z,18.90
2018-06-20T04:03:15.578Z,18.80
2018-06-20T04:05:44.453Z,18.80
2018-06-20T04:08:13.624Z,18.90
2018-06-20T04:10:42.534Z,19.00
2018-06-20T04:13:11.411Z,18.90
2018-06-20T04:15:40.287Z,19.10
2018-06-20T04:18:09.144Z,19.20
2018-06-20T04:20:38.146Z,19.10
2018-06-20T04:23:07.152Z,19.40
2018-06-20T04:25:36.016Z,19.40
2018-06-20T04:28:04.883Z,19.50
2018-06-20T04:30:33.849Z,19.60
2018-06-20T04:33:02.782Z,19.70
2018-06-20T04:35:31.650Z,19.60
2018-06-20T04:38:00.531Z,19.60
2018-06-20T04:40:29.409Z,19.70
2018-06-20T04:42:58.283Z,19.80
2018-06-20T04:45:27.255Z,19.80
2018-06-20T04:47:56.139Z,19.80
2018-06-20T04:50:25.022Z,19.90
2018-06-20T04:52:53.932Z,19.80
2018-06-20T04:55:22.811Z,20.00
2018-06-20T04:57:51.716Z,20.10
2018-06-20T05:00:20.599Z,20.10
2018-06-20T05:02:49.484Z,20.20
2018-06-20T05:05:18.363Z,20.30
2018-06-20T05:07:47.241Z,20.20
2018-06-20T05:10:16.120Z,20.40
2018-06-20T05:12:45.045Z,20.40
2018-06-20T05:15:13.997Z,20.40
2018-06-20T05:17:42.868Z,20.30
2018-06-20T05:20:11.915Z,20.60
2018-06-20T05:22:40.984Z,20.70
2018-06-20T05:34:13.081Z,20.90
2018-06-20T05:42:01.073Z,21.10
2018-06-20T05:44:29.954Z,21.20
2018-06-20T05:46:58.964Z,21.20
2018-06-20T05:49:28.312Z,21.20
2018-06-20T05:54:27.263Z,21.50
2018-06-20T05:56:56.173Z,21.50
2018-06-20T05:59:25.075Z,21.50
2018-06-20T06:01:53.990Z,21.60
2018-06-20T06:04:22.913Z,21.70
2018-06-20T06:06:51.847Z,21.70
2018-06-20T06:09:20.749Z,21.80
2018-06-20T06:11:49.685Z,21.80
2018-06-20T06:14:18.565Z,21.70
2018-06-20T06:16:47.474Z,21.80
2018-06-20T06:22:42.216Z,21.60
2018-06-20T06:28:37.293Z,21.50
2018-06-20T06:31:06.230Z,21.50
2018-06-20T12:20:53.620Z,27.50
2018-06-20T12:32:38.471Z,27.80
2018-06-20T12:59:01.537Z,28.30
2018-06-20T13:01:31.186Z,28.30
2018-06-20T13:04:00.059Z,28.40
2018-06-20T13:09:32.036Z,28.60
2018-06-20T13:12:01.048Z,28.70
2018-06-20T13:14:30.135Z,28.60
2018-06-20T13:19:49.529Z,28.60
2018-06-20T13:22:18.446Z,28.70
2018-06-20T13:24:51.201Z,28.70
2018-06-20T13:30:23.524Z,28.60
2018-06-20T13:36:00.906Z,28.80
2018-06-20T13:38:35.131Z,28.90
2018-06-20T13:50:07.389Z,29.20
2018-06-20T13:52:36.256Z,29.30
2018-06-20T13:58:11.695Z,29.60
2018-06-20T14:01:01.373Z,29.60
2018-06-20T14:12:40.680Z,29.80
2018-06-20T14:30:31.852Z,30.00
2018-06-20T14:33:07.722Z,30.20
2018-06-20T14:35:41.760Z,30.60
2018-06-20T14:44:17.039Z,32.20
2018-06-20T15:01:27.661Z,32.90
2018-06-20T15:03:57.540Z,33.30
2018-06-20T15:09:44.180Z,33.50
2018-06-20T15:12:13.104Z,34.40
2018-06-20T15:14:42.717Z,34.40
2018-06-20T15:20:15.363Z,33.90
2018-06-20T15:29:09.748Z,35.60
2018-06-20T15:37:50.637Z,36.60
2018-06-20T15:40:20.168Z,36.80
2018-06-20T15:42:49.040Z,37.10
2018-06-20T15:45:17.903Z,36.40
2018-06-20T15:47:46.769Z,36.60
2018-06-20T15:50:15.624Z,36.60
2018-06-20T15:52:50.361Z,35.50
2018-06-20T15:55:19.264Z,35.30
2018-06-20T15:57:48.129Z,35.30
2018-06-20T16:00:17.031Z,36.20
2018-06-20T16:02:45.867Z,35.90
2018-06-20T16:05:14.749Z,35.90
2018-06-20T16:07:43.629Z,36.70
2018-06-20T16:10:16.741Z,36.70
2018-06-20T16:12:45.640Z,37.40
2018-06-20T16:15:14.836Z,37.40
2018-06-20T16:17:43.756Z,37.90
2018-06-20T16:20:17.959Z,37.80
2018-06-20T16:22:52.221Z,37.50
2018-06-20T16:25:26.424Z,37.40
2018-06-20T16:28:01.059Z,37.90
2018-06-20T16:30:33.220Z,36.50
2018-06-20T16:33:02.136Z,36.00
2018-06-20T16:35:31.538Z,36.00
2018-06-20T16:38:00.623Z,36.80
2018-06-20T16:40:29.400Z,37.40
2018-06-20T16:42:58.347Z,36.90
2018-06-20T16:45:27.247Z,36.90
2018-06-20T16:47:56.280Z,36.80
2018-06-20T16:50:25.165Z,36.00
2018-06-20T16:52:54.073Z,36.70
2018-06-20T16:55:22.978Z,37.10
2018-06-20T16:57:51.881Z,37.00
2018-06-20T17:00:20.783Z,36.70
2018-06-20T17:02:49.784Z,36.40
2018-06-20T17:05:18.653Z,35.60
2018-06-20T17:19:56.480Z,30.90
2018-06-20T17:46:47.056Z,28.20
2018-06-20T18:30:48.129Z,27.00
2018-06-20T18:33:16.992Z,26.90
2018-06-20T18:35:46.548Z,26.90
2018-06-20T18:38:15.428Z,26.80
2018-06-20T18:43:12.817Z,26.80
2018-06-20T18:45:41.708Z,26.80
2018-06-20T18:48:16.016Z,26.70
2018-06-20T18:50:44.879Z,26.60
2018-06-20T18:53:14.004Z,26.50
2018-06-20T18:55:42.876Z,26.40
2018-06-20T18:58:17.146Z,26.40
2018-06-20T19:00:51.366Z,26.30
2018-06-20T19:03:25.475Z,26.20
2018-06-20T19:05:59.780Z,26.10
2018-06-20T19:09:06.573Z,26.00
2018-06-20T19:11:35.393Z,25.90
2018-06-20T19:14:04.288Z,25.80
2018-06-20T19:16:33.201Z,25.90
2018-06-20T19:19:02.063Z,25.80
2018-06-20T19:21:31.009Z,25.70
2018-06-20T19:23:59.819Z,25.70
2018-06-20T19:26:28.764Z,25.60
2018-06-20T19:28:57.557Z,25.60
2018-06-20T19:31:26.411Z,25.50
2018-06-20T19:33:55.264Z,25.50
2018-06-20T19:36:24.111Z,25.40
2018-06-20T19:38:52.951Z,25.40
2018-06-20T19:41:21.828Z,25.30
2018-06-20T19:46:24.724Z,25.00
2018-06-20T19:48:53.578Z,24.90
2018-06-20T19:51:22.996Z,24.90
2018-06-20T19:53:51.831Z,24.70
2018-06-20T19:56:20.733Z,24.50
2018-06-20T19:58:49.574Z,24.50
2018-06-20T20:01:18.428Z,24.60
2018-06-20T20:03:47.267Z,24.50
2018-06-20T20:06:16.104Z,24.50
2018-06-20T20:08:44.948Z,24.50
2018-06-20T20:11:13.803Z,24.40
2018-06-20T20:13:42.756Z,24.40
2018-06-20T20:16:11.716Z,24.30
2018-06-20T20:18:40.589Z,24.20
2018-06-20T20:23:37.956Z,24.00
2018-06-20T20:26:06.837Z,23.90
2018-06-20T20:28:35.680Z,23.80
2018-06-20T21:04:10.829Z,23.00
2018-06-20T23:58:05.739Z,20.50
